< < Back
Terminal Aerodrome Forecast


Current Version              Previous Versions:   1  2  3  4  5  6  7  8  9  

Terminal Aerodrome Forecast

065
FTUS44 KBMX 270500
TAFBHM
TAF
KBHM 270536Z 2706/2806 34008KT P6SM SKC
     FM270800 35010KT P6SM BKN025
     FM271100 35010KT P6SM OVC015
     FM271800 36008KT P6SM BKN025
     FM272100 35008KT P6SM SCT025=



Latest METAR

243
SAUS70 KWBC 270700 RRE
MTRBHM
METAR KBHM 270653Z 35005KT 9SM CLR M02/M04 A3030 RMK AO2 SLP265
T10221044


USA.gov is the U.S. government's official web portal to all federal, state and local government web resources and services.